»·PEaware :: N623JM KSAC-KMRY

N623JM :: KSAC-KMRY

FLIGHT INFORMATION

Flight Status: Arrived
Operator: Privately registered:
United States
More flights under this callsign
Pilot: Joe M. (18884)
Aircraft: Unknown
(EPIC)
More flights by this aircraft type
Origin: KSAC Sacramento Executive
United States
Destination: KMRY Monterey Peninsula
United States
More flights between these airports :: More routes between these airports
Route: MOD V111 SNS
File this flight plan on PilotEdge
Remarks:
Altitude:
(Current/Filed)
12,000ft
Speed:
(Current/Filed)
300kts
Departed: 13-Jun-18 05:48 PM
Arrived: 13-Jun-18 06:22 PM
Distance/Time
Traveled:
117nm/0:34
Distance/Time
To Go:
Arrived

Flight Plot

Page will automatically refresh every two minutes.

Flight plan parsing failed; only flown route is shown


Map Options




Map Legend


Flown Route
Filed Route
Departure Airport
Arrival Airport
Navaid (VOR, NDB)
Fix

Horizontal Profiles

Position Reports

Time Latitude Longitude Heading Altitude Ground
Speed
13-Jun-18 17:30 38.511272 -121.499928 92 20ft 0kts
13-Jun-18 17:31 38.511272 -121.499928 92 20ft 0kts
13-Jun-18 17:32 38.511272 -121.499928 92 20ft 0kts
13-Jun-18 17:33 38.511272 -121.499928 92 20ft 0kts
13-Jun-18 17:34 38.511272 -121.499928 92 20ft 0kts
13-Jun-18 17:35 38.511272 -121.499928 92 20ft 0kts
13-Jun-18 17:36 38.511272 -121.499928 92 20ft 0kts
13-Jun-18 17:37 38.511272 -121.499928 92 20ft 0kts
13-Jun-18 17:38 38.511272 -121.499927 92 20ft 0kts
13-Jun-18 17:39 38.511272 -121.499927 92 20ft 0kts
13-Jun-18 17:40 38.511272 -121.499927 92 20ft 0kts
13-Jun-18 17:41 38.511272 -121.499927 92 20ft 0kts
13-Jun-18 17:42 38.511272 -121.499927 92 20ft 0kts
13-Jun-18 17:43 38.511272 -121.499927 92 20ft 0kts
13-Jun-18 17:44 38.511396 -121.497948 95 20ft 13kts
13-Jun-18 17:45 38.514444 -121.494726 31 20ft 15kts
13-Jun-18 17:46 38.518563 -121.491338 32 23ft 15kts
13-Jun-18 17:47 38.519164 -121.490301 103 23ft 0kts
13-Jun-18 17:48 38.514177 -121.493243 212 30ft 113kts
13-Jun-18 17:49 38.474562 -121.490158 163 1763ft 181kts
13-Jun-18 17:50 38.424818 -121.466715 153 3022ft 204kts
13-Jun-18 17:51 38.374202 -121.433139 155 6598ft 214kts
13-Jun-18 17:52 38.320169 -121.398214 155 9535ft 228kts
13-Jun-18 17:53 38.262826 -121.361378 154 11802ft 250kts
13-Jun-18 17:54 38.192470 -121.316294 154 11964ft 302kts
13-Jun-18 17:55 38.128566 -121.275461 154 12015ft 317kts
13-Jun-18 17:56 38.051312 -121.226186 154 12018ft 316kts
13-Jun-18 17:57 37.971634 -121.175448 154 12017ft 322kts
13-Jun-18 17:58 37.892905 -121.125486 154 12017ft 319kts
13-Jun-18 17:59 37.814348 -121.075744 154 12015ft 315kts
13-Jun-18 18:00 37.736528 -121.026582 154 12012ft 311kts
13-Jun-18 18:01 37.647144 -120.971712 166 11984ft 307kts
13-Jun-18 18:02 37.567752 -121.000919 204 12008ft 305kts
13-Jun-18 18:03 37.491687 -121.050066 208 12009ft 308kts
13-Jun-18 18:04 37.428627 -121.092455 208 12008ft 311kts
13-Jun-18 18:05 37.352253 -121.143951 209 12008ft 313kts
13-Jun-18 18:06 37.275244 -121.195795 209 12008ft 317kts
13-Jun-18 18:07 37.197650 -121.247910 209 12048ft 317kts
13-Jun-18 18:08 37.120550 -121.299564 209 12077ft 310kts
13-Jun-18 18:09 37.045352 -121.349847 209 12081ft 305kts
13-Jun-18 18:10 36.970864 -121.399529 209 12082ft 306kts
13-Jun-18 18:11 36.892003 -121.437895 199 11894ft 295kts
13-Jun-18 18:12 36.816008 -121.469581 199 11015ft 283kts
13-Jun-18 18:13 36.744303 -121.499883 200 9755ft 280kts
13-Jun-18 18:14 36.673032 -121.530018 200 7609ft 267kts
13-Jun-18 18:15 36.607715 -121.557543 201 5573ft 234kts
13-Jun-18 18:16 36.572213 -121.609701 248 4151ft 203kts
13-Jun-18 18:17 36.568444 -121.668376 273 3159ft 171kts
13-Jun-18 18:18 36.571770 -121.727148 275 2249ft 168kts
13-Jun-18 18:19 36.576219 -121.777889 274 1339ft 118kts
13-Jun-18 18:20 36.578409 -121.813648 274 710ft 98kts
13-Jun-18 18:21 36.586374 -121.842683 291 213ft 60kts
13-Jun-18 18:22 36.586865 -121.846071 198 193ft 0kts
13-Jun-18 18:23 36.585394 -121.846817 57 201ft 6kts

Navigation Log

Ident Type
Flight plan parsing failed, navigation log unavailable